Time;durP1;ratioP1;P1;durP2;ratioP2;P2;SDS_P1;SDS_P2;PMS_P1;PMS_P2;Temp;Humidity;BMP_temperature;BMP_pressure;BME280_temperature;BME280_humidity;BME280_pressure;Samples;Min_cycle;Max_cycle;Signal;HPM_P1;HPM_P2
2022/06/30 00:00:16;;;;;;;1.85;1.42;;;19.10;99.90;19.20;100322.00;;;;4935238;28;88528;-59
2022/06/30 00:02:42;;;;;;;1.60;1.50;;;19.00;99.90;19.10;100318.00;;;;4934539;28;100568;-60
2022/06/30 00:09:48;;;;;;;3.53;1.52;;;19.00;99.90;19.00;100316.00;;;;4920509;28;87345;-60
2022/06/30 00:12:14;;;;;;;1.20;1.10;;;18.90;99.90;19.00;100320.00;;;;4935257;28;87678;-60
2022/06/30 00:14:39;;;;;;;1.42;1.33;;;18.90;99.90;19.00;100321.00;;;;4934509;28;116635;-60
2022/06/30 00:17:06;;;;;;;2.10;1.73;;;18.90;99.90;19.00;100320.00;;;;4916210;28;87278;-59
2022/06/30 00:19:34;;;;;;;1.73;1.45;;;18.90;99.90;19.00;100323.00;;;;4930849;28;87211;-58
2022/06/30 00:22:01;;;;;;;1.20;1.08;;;18.90;99.90;19.00;100317.00;;;;4934775;28;87826;-60
2022/06/30 00:24:27;;;;;;;1.98;1.75;;;18.90;99.90;19.00;100314.00;;;;4935105;28;87392;-60
2022/06/30 00:26:53;;;;;;;1.58;1.48;;;18.80;99.90;19.00;100309.00;;;;4915081;28;87752;-57
2022/06/30 00:29:18;;;;;;;3.78;1.70;;;18.80;99.90;18.90;100313.00;;;;4914622;28;107618;-59
2022/06/30 00:31:44;;;;;;;1.30;1.20;;;18.80;99.90;18.90;100325.00;;;;4932881;28;116704;-59
2022/06/30 00:34:10;;;;;;;2.50;1.92;;;18.80;99.90;18.90;100315.00;;;;4934513;28;88323;-58
2022/06/30 00:36:35;;;;;;;1.33;1.23;;;18.80;99.90;18.90;100308.00;;;;4933588;28;108225;-60
2022/06/30 00:39:01;;;;;;;5.00;1.48;;;18.80;99.90;18.80;100311.00;;;;4934402;28;108404;-59
2022/06/30 00:41:26;;;;;;;1.38;1.02;;;18.70;99.90;18.80;100312.00;;;;4933503;28;117403;-58
2022/06/30 00:43:52;;;;;;;2.03;1.85;;;18.70;99.90;18.80;100312.00;;;;4931942;28;117922;-60
2022/06/30 00:46:18;;;;;;;1.38;1.27;;;18.70;99.90;18.70;100315.00;;;;4934912;28;109554;-59
2022/06/30 00:48:44;;;;;;;2.17;1.52;;;18.60;99.90;18.70;100316.00;;;;4934879;28;109098;-60
2022/06/30 00:51:11;;;;;;;3.03;1.15;;;18.60;99.90;18.70;100315.00;;;;4934275;28;89058;-59
2022/06/30 00:53:40;;;;;;;1.63;1.52;;;18.50;99.90;18.60;100308.00;;;;4933599;28;88650;-60
2022/06/30 00:56:08;;;;;;;1.92;1.73;;;18.50;99.90;18.60;100313.00;;;;4934305;28;87301;-60
2022/06/30 00:58:40;;;;;;;1.50;1.40;;;18.50;99.90;18.60;100311.00;;;;4933873;28;100627;-55
2022/06/30 01:01:11;;;;;;;1.58;1.48;;;18.50;99.90;18.60;100312.00;;;;4933927;28;87701;-58
2022/06/30 01:03:37;;;;;;;1.73;1.58;;;18.50;99.90;18.60;100307.00;;;;4916564;28;105930;-60
2022/06/30 01:06:04;;;;;;;2.47;1.98;;;18.50;99.90;18.60;100299.00;;;;4933642;28;108361;-59
2022/06/30 01:08:32;;;;;;;2.20;1.83;;;18.50;99.90;18.70;100304.00;;;;4934927;28;86777;-60
2022/06/30 01:13:45;;;;;;;1.88;1.75;;;18.50;99.90;18.70;100297.00;;;;4931361;28;87629;-60
2022/06/30 01:16:11;;;;;;;1.25;1.15;;;18.50;99.90;18.70;100297.00;;;;4933652;28;87455;-60
2022/06/30 01:18:37;;;;;;;3.50;2.10;;;18.60;99.90;18.80;100298.00;;;;4934463;28;88839;-60
2022/06/30 01:21:03;;;;;;;1.90;1.60;;;18.60;99.90;18.80;100288.00;;;;4934048;28;88559;-60
2022/06/30 01:23:29;;;;;;;1.85;1.30;;;18.60;99.90;18.80;100292.00;;;;4933466;28;92257;-60
2022/06/30 01:25:55;;;;;;;1.92;1.73;;;18.70;99.90;18.80;100291.00;;;;4933389;28;111058;-60
2022/06/30 01:28:21;;;;;;;2.25;1.77;;;18.70;99.90;18.80;100293.00;;;;4933613;28;107880;-60
2022/06/30 01:30:46;;;;;;;2.30;1.75;;;18.70;99.90;18.80;100302.00;;;;4932636;28;116753;-59
2022/06/30 01:33:13;;;;;;;2.47;1.85;;;18.70;99.90;18.80;100295.00;;;;4933263;28;116965;-58
2022/06/30 01:35:39;;;;;;;2.70;1.42;;;18.70;99.90;18.80;100284.00;;;;4934117;28;110744;-60
2022/06/30 01:38:05;;;;;;;1.88;1.60;;;18.70;99.90;18.80;100280.00;;;;4933197;28;108595;-60
2022/06/30 01:40:35;;;;;;;1.70;1.60;;;18.70;99.90;18.80;100289.00;;;;4934382;28;87438;-60
2022/06/30 01:43:03;;;;;;;2.97;2.22;;;18.70;99.90;18.80;100282.00;;;;4933070;28;88360;-60
2022/06/30 01:45:29;;;;;;;2.05;1.85;;;18.60;99.90;18.80;100288.00;;;;4933903;28;87524;-60
2022/06/30 01:47:55;;;;;;;3.78;2.25;;;18.70;99.90;18.80;100278.00;;;;4913916;28;108656;-60
2022/06/30 01:50:28;;;;;;;1.77;1.63;;;18.60;99.90;18.80;100275.00;;;;4920388;28;88874;-59
2022/06/30 01:52:55;;;;;;;1.95;1.48;;;18.60;99.90;18.70;100277.00;;;;4933619;28;88503;-58
2022/06/30 01:55:21;;;;;;;2.03;1.58;;;18.60;99.90;18.70;100282.00;;;;4933848;28;87199;-60
2022/06/30 01:57:47;;;;;;;1.85;1.70;;;18.60;99.90;18.70;100273.00;;;;4934075;28;87484;-60
2022/06/30 02:00:17;;;;;;;2.05;1.67;;;18.60;99.90;18.70;100277.00;;;;4933367;28;104637;-60
2022/06/30 02:02:44;;;;;;;2.15;1.73;;;18.50;99.90;18.60;100268.00;;;;4933390;28;93139;-60
2022/06/30 02:05:10;;;;;;;2.50;1.58;;;18.50;99.90;18.60;100271.00;;;;4934410;28;86938;-60
2022/06/30 02:07:37;;;;;;;2.70;1.90;;;18.50;99.90;18.60;100269.00;;;;4932395;28;88406;-60
2022/06/30 02:10:08;;;;;;;1.20;1.10;;;18.50;99.90;18.60;100269.00;;;;4933589;28;88266;-59
2022/06/30 02:12:46;;;;;;;1.50;1.40;;;18.40;99.90;18.50;100264.00;;;;4932886;28;88469;-59
2022/06/30 02:15:14;;;;;;;3.83;2.28;;;18.40;99.90;18.50;100256.00;;;;4934320;28;87636;-59
2022/06/30 02:17:41;;;;;;;2.72;1.88;;;18.40;99.90;18.50;100251.00;;;;4933238;28;87130;-59
2022/06/30 02:20:09;;;;;;;2.15;1.95;;;18.40;99.90;18.40;100245.00;;;;4931755;28;90111;-59
2022/06/30 02:22:36;;;;;;;2.50;1.88;;;18.30;99.90;18.40;100245.00;;;;4932900;28;88548;-60
2022/06/30 02:25:03;;;;;;;2.95;1.92;;;18.30;99.90;18.40;100246.00;;;;4934133;28;86601;-59
2022/06/30 02:27:29;;;;;;;2.05;1.83;;;18.20;99.90;18.30;100251.00;;;;4932931;28;87014;-59
2022/06/30 02:29:54;;;;;;;1.90;1.65;;;18.20;99.90;18.30;100260.00;;;;4933704;28;88428;-60
2022/06/30 02:32:22;;;;;;;2.85;1.70;;;18.20;99.90;18.20;100248.00;;;;4930293;28;117020;-59
2022/06/30 02:34:49;;;;;;;1.75;1.48;;;18.20;99.90;18.20;100260.00;;;;4928534;28;87044;-60
2022/06/30 02:37:15;;;;;;;3.03;2.05;;;18.10;99.90;18.10;100251.00;;;;4913181;28;102383;-59
2022/06/30 02:39:41;;;;;;;2.30;2.10;;;18.00;99.90;18.10;100252.00;;;;4926732;28;88494;-59
2022/06/30 02:42:07;;;;;;;2.30;2.10;;;18.00;99.90;18.10;100255.00;;;;4922594;28;102814;-59
2022/06/30 02:44:34;;;;;;;1.80;1.60;;;17.90;99.90;18.00;100256.00;;;;4914457;28;97812;-57
2022/06/30 02:47:00;;;;;;;2.92;1.40;;;17.90;99.90;18.00;100246.00;;;;4914631;28;87580;-60
2022/06/30 02:49:25;;;;;;;2.92;2.13;;;17.90;99.90;18.00;100242.00;;;;4915541;28;104220;-60
2022/06/30 02:51:51;;;;;;;3.45;2.10;;;17.80;99.90;17.90;100237.00;;;;4912662;28;115423;-59
2022/06/30 02:54:17;;;;;;;3.97;1.50;;;17.80;99.90;17.90;100248.00;;;;4914561;28;111034;-60
2022/06/30 02:56:43;;;;;;;2.65;1.95;;;17.80;99.90;17.90;100249.00;;;;4912923;28;106506;-60
2022/06/30 02:59:09;;;;;;;2.15;2.03;;;17.80;99.90;17.90;100255.00;;;;4914041;28;87773;-60
2022/06/30 03:01:35;;;;;;;2.53;2.33;;;17.70;99.90;17.80;100253.00;;;;4913107;28;88352;-58
2022/06/30 03:04:02;;;;;;;1.80;1.35;;;17.70;99.90;17.80;100260.00;;;;4922413;28;88044;-59
2022/06/30 03:06:30;;;;;;;2.03;1.83;;;17.70;99.90;17.80;100256.00;;;;4930153;28;87287;-60
2022/06/30 03:08:57;;;;;;;1.75;1.65;;;17.70;99.90;17.80;100249.00;;;;4931258;28;95532;-60
2022/06/30 03:11:23;;;;;;;1.42;1.35;;;17.70;99.90;17.80;100255.00;;;;4916564;28;104164;-60
2022/06/30 03:13:49;;;;;;;7.32;2.83;;;17.70;99.90;17.80;100254.00;;;;4916102;28;86228;-60
2022/06/30 03:16:16;;;;;;;2.15;1.95;;;17.70;99.90;17.70;100249.00;;;;4916329;28;104736;-60
2022/06/30 03:18:42;;;;;;;2.92;1.77;;;17.60;99.90;17.70;100251.00;;;;4917859;28;88744;-60
2022/06/30 03:21:08;;;;;;;2.45;2.25;;;17.60;99.90;17.70;100244.00;;;;4927002;28;116396;-60
2022/06/30 03:23:34;;;;;;;2.70;2.25;;;17.60;99.90;17.70;100243.00;;;;4932515;28;102292;-60
2022/06/30 03:26:00;;;;;;;3.35;3.05;;;17.60;99.90;17.70;100261.00;;;;4899694;28;92097;-60
2022/06/30 03:28:26;;;;;;;2.45;2.05;;;17.60;99.90;17.70;100257.00;;;;4916819;28;96495;-59
2022/06/30 03:30:53;;;;;;;2.00;1.85;;;17.60;99.90;17.70;100266.00;;;;4916255;28;108539;-59
2022/06/30 03:33:20;;;;;;;2.83;2.42;;;17.60;99.90;17.80;100266.00;;;;4918249;28;87196;-60
2022/06/30 03:35:46;;;;;;;2.15;1.90;;;17.70;99.90;17.80;100270.00;;;;4935752;28;98769;-59
2022/06/30 03:38:12;;;;;;;1.80;1.70;;;17.70;99.90;17.80;100275.00;;;;4936662;28;86682;-59
2022/06/30 03:40:46;;;;;;;3.45;2.72;;;17.70;99.90;17.80;100271.00;;;;4919469;28;87496;-60
2022/06/30 03:43:18;;;;;;;2.63;1.88;;;17.70;99.90;17.90;100276.00;;;;4916163;28;101353;-58
2022/06/30 03:45:44;;;;;;;2.85;1.75;;;17.70;99.90;17.90;100281.00;;;;4907417;28;88339;-59
2022/06/30 03:48:10;;;;;;;2.35;1.67;;;17.70;99.90;17.90;100278.00;;;;4916981;28;117861;-60
2022/06/30 03:50:42;;;;;;;3.10;2.55;;;17.80;99.90;17.90;100278.00;;;;4935047;28;116441;-60
2022/06/30 03:53:08;;;;;;;2.67;2.47;;;17.80;99.90;18.00;100268.00;;;;4929652;28;110720;-59
2022/06/30 03:55:33;;;;;;;4.18;2.17;;;17.80;99.90;18.00;100278.00;;;;4933631;28;107823;-60
2022/06/30 03:58:00;;;;;;;2.08;1.88;;;17.80;99.90;18.00;100280.00;;;;4932612;28;88477;-60
2022/06/30 04:00:26;;;;;;;3.90;2.20;;;17.80;99.90;18.10;100274.00;;;;4926436;28;88735;-60
2022/06/30 04:02:51;;;;;;;1.98;1.73;;;17.90;99.90;18.00;100272.00;;;;4915999;28;110868;-59
2022/06/30 04:05:17;;;;;;;2.97;2.60;;;17.90;99.90;18.10;100276.00;;;;4930247;28;108016;-60
2022/06/30 04:07:45;;;;;;;2.75;2.13;;;17.90;99.90;18.10;100275.00;;;;4922030;28;116248;-60
2022/06/30 04:10:14;;;;;;;3.42;2.35;;;18.00;99.90;18.10;100277.00;;;;4909042;28;102296;-60
2022/06/30 04:12:40;;;;;;;3.65;2.67;;;18.00;99.90;18.20;100274.00;;;;4916308;28;87461;-60
2022/06/30 04:15:07;;;;;;;3.33;2.00;;;18.00;99.90;18.20;100283.00;;;;4927852;28;86987;-59
2022/06/30 04:17:34;;;;;;;3.38;2.35;;;18.00;99.90;18.20;100283.00;;;;4934234;28;110554;-60
2022/06/30 04:20:05;;;;;;;3.53;2.60;;;18.10;99.90;18.30;100280.00;;;;4933250;28;87227;-58
2022/06/30 04:22:31;;;;;;;2.75;2.50;;;18.10;99.90;18.30;100286.00;;;;4916024;28;87591;-60
2022/06/30 04:24:57;;;;;;;4.43;2.80;;;18.10;99.90;18.30;100282.00;;;;4926454;28;87571;-60
2022/06/30 04:27:23;;;;;;;5.68;2.28;;;18.20;99.90;18.30;100288.00;;;;4929614;28;86942;-60
2022/06/30 04:29:49;;;;;;;2.90;2.53;;;18.20;99.90;18.30;100299.00;;;;4915131;28;116747;-59
2022/06/30 04:34:59;;;;;;;3.55;2.33;;;18.20;99.90;18.30;100299.00;;;;4915439;28;87868;-60
2022/06/30 04:37:25;;;;;;;2.50;2.30;;;18.40;99.90;18.40;100299.00;;;;4896442;28;116896;-59
2022/06/30 04:41:23;;;;;;;2.35;2.15;;;18.20;99.90;18.40;100297.00;;;;4914191;28;95206;-60
2022/06/30 04:42:36;;;;;;;1.60;1.50;;;18.20;99.90;18.40;100299.00;;;;4899875;28;87571;-58
2022/06/30 04:45:02;;;;;;;3.92;2.60;;;18.20;99.90;18.40;100292.00;;;;4915000;28;108934;-59
2022/06/30 04:47:28;;;;;;;3.55;2.40;;;18.20;99.90;18.40;100287.00;;;;4914884;28;109548;-60
2022/06/30 04:49:54;;;;;;;2.90;2.25;;;18.20;99.90;18.40;100285.00;;;;4915085;28;114663;-59
2022/06/30 04:52:20;;;;;;;3.45;2.30;;;18.20;99.90;18.40;100279.00;;;;4914822;28;86708;-59
2022/06/30 04:54:46;;;;;;;2.40;2.20;;;18.30;99.90;18.50;100273.00;;;;4914393;28;107842;-60
2022/06/30 04:57:12;;;;;;;2.60;2.35;;;18.30;99.90;18.50;100269.00;;;;4913752;28;117713;-60
2022/06/30 04:59:37;;;;;;;2.50;2.30;;;18.40;99.90;18.60;100265.00;;;;4914113;28;116608;-60
2022/06/30 05:02:03;;;;;;;2.17;2.00;;;18.40;99.90;18.70;100256.00;;;;4914797;28;110176;-60
2022/06/30 05:04:29;;;;;;;2.88;2.58;;;18.50;99.90;18.80;100255.00;;;;4915676;28;87117;-60
2022/06/30 05:06:55;;;;;;;2.63;2.28;;;18.60;99.90;18.90;100269.00;;;;4913423;28;116619;-59
2022/06/30 05:09:20;;;;;;;1.70;1.60;;;18.90;99.90;19.00;100259.00;;;;4914994;28;88328;-58
2022/06/30 05:11:46;;;;;;;3.08;2.60;;;18.80;99.90;19.10;100259.00;;;;4913847;28;111534;-60
2022/06/30 05:14:12;;;;;;;2.08;1.88;;;18.90;99.90;19.20;100263.00;;;;4914864;28;87403;-60
2022/06/30 05:16:37;;;;;;;7.28;2.08;;;19.00;99.90;19.30;100256.00;;;;4914612;28;116575;-60
2022/06/30 05:19:03;;;;;;;3.55;1.77;;;19.10;99.90;19.40;100255.00;;;;4913945;28;117112;-59
2022/06/30 05:21:29;;;;;;;3.33;2.00;;;19.20;99.90;19.50;100245.00;;;;4914261;28;110739;-60
2022/06/30 05:26:38;;;;;;;2.10;1.35;;;19.40;99.90;19.70;100240.00;;;;4912543;28;87343;-59
2022/06/30 05:29:04;;;;;;;2.85;1.98;;;19.50;99.90;19.80;100249.00;;;;4912627;28;117477;-60
2022/06/30 05:31:30;;;;;;;2.05;1.42;;;19.60;99.90;19.90;100246.00;;;;4913503;28;112303;-59
2022/06/30 05:33:55;;;;;;;1.60;1.35;;;19.70;99.90;20.00;100260.00;;;;4927413;28;87570;-59
2022/06/30 05:36:21;;;;;;;2.97;2.38;;;19.70;99.90;20.00;100262.00;;;;4932342;28;116254;-59
2022/06/30 05:38:47;;;;;;;3.15;2.30;;;19.80;99.90;20.10;100269.00;;;;4930662;28;116011;-60
2022/06/30 05:41:12;;;;;;;1.92;1.73;;;19.90;99.90;20.20;100264.00;;;;4933790;28;104405;-59
2022/06/30 05:43:38;;;;;;;3.78;2.15;;;20.00;99.90;20.30;100271.00;;;;4939361;28;87100;-60
2022/06/30 05:46:04;;;;;;;2.08;1.58;;;20.00;99.90;20.30;100278.00;;;;4932696;28;87467;-60
2022/06/30 05:48:29;;;;;;;3.40;1.85;;;20.10;99.90;20.40;100280.00;;;;4932222;28;117168;-59
2022/06/30 05:50:55;;;;;;;1.52;1.42;;;20.20;99.90;20.50;100288.00;;;;4933804;28;87055;-60
2022/06/30 05:53:21;;;;;;;2.67;1.77;;;20.20;99.90;20.50;100296.00;;;;4931748;28;108597;-60
2022/06/30 05:55:47;;;;;;;7.82;2.00;;;20.30;99.90;20.60;100293.00;;;;4931858;28;118226;-60
2022/06/30 05:58:19;;;;;;;1.60;1.35;;;20.40;99.90;20.70;100309.00;;;;4933260;28;87531;-60
2022/06/30 06:00:45;;;;;;;1.70;1.58;;;20.50;99.90;20.80;100309.00;;;;4933817;28;87660;-60
2022/06/30 06:03:10;;;;;;;1.63;1.42;;;20.60;99.90;20.90;100308.00;;;;4933845;28;87142;-60
2022/06/30 06:05:36;;;;;;;2.40;2.20;;;20.60;99.90;20.90;100312.00;;;;4932785;28;116186;-60
2022/06/30 06:08:07;;;;;;;3.15;1.92;;;20.70;99.90;21.00;100304.00;;;;4933199;28;87181;-60
2022/06/30 06:10:33;;;;;;;2.58;1.90;;;20.70;99.90;21.10;100308.00;;;;4933651;28;87412;-59
2022/06/30 06:12:59;;;;;;;2.55;1.65;;;20.80;99.90;21.20;100311.00;;;;4933249;28;87896;-60
2022/06/30 06:15:24;;;;;;;0.93;0.93;;;20.90;99.90;21.30;100310.00;;;;4931328;28;113066;-60
2022/06/30 06:17:50;;;;;;;1.77;1.67;;;21.00;99.90;21.40;100320.00;;;;4932460;28;117714;-60
2022/06/30 06:20:18;;;;;;;2.55;1.58;;;21.10;99.90;21.50;100309.00;;;;4932102;28;110948;-58
2022/06/30 06:22:44;;;;;;;2.72;1.85;;;21.30;99.90;21.70;100313.00;;;;4934112;28;89173;-60
2022/06/30 06:25:12;;;;;;;2.88;2.22;;;21.40;99.90;21.80;100311.00;;;;4932184;28;88986;-59
2022/06/30 06:27:38;;;;;;;1.42;1.33;;;21.50;99.90;22.00;100312.00;;;;4932842;28;94373;-59
2022/06/30 06:30:06;;;;;;;2.28;1.58;;;21.70;99.90;22.10;100311.00;;;;4933882;28;86574;-60
2022/06/30 06:32:32;;;;;;;2.58;1.65;;;21.80;99.90;22.30;100304.00;;;;4933251;28;87396;-60
2022/06/30 06:34:58;;;;;;;2.20;1.65;;;22.00;99.90;22.40;100302.00;;;;4933002;28;88530;-60
2022/06/30 06:37:24;;;;;;;2.75;1.80;;;22.10;99.90;22.60;100310.00;;;;4931808;28;114998;-60
2022/06/30 06:39:56;;;;;;;2.83;1.70;;;22.30;99.90;22.70;100320.00;;;;4932904;28;110966;-59
2022/06/30 06:42:21;;;;;;;1.77;1.67;;;22.40;99.90;22.70;100307.00;;;;4934838;28;89786;-60
2022/06/30 06:44:48;;;;;;;2.55;2.17;;;22.40;99.90;22.70;100305.00;;;;4934797;28;117284;-60
2022/06/30 06:47:15;;;;;;;3.05;2.55;;;22.50;99.90;22.80;100309.00;;;;4937021;28;88243;-60
2022/06/30 06:49:44;;;;;;;3.40;1.90;;;22.50;99.90;22.90;100315.00;;;;4919614;28;87420;-60
2022/06/30 06:52:10;;;;;;;1.55;1.45;;;22.60;99.90;22.90;100317.00;;;;4936838;28;87002;-60
2022/06/30 06:54:35;;;;;;;2.55;1.80;;;22.60;99.90;22.90;100317.00;;;;4937134;28;87166;-60
2022/06/30 06:57:01;;;;;;;2.03;1.83;;;22.70;99.90;22.90;100319.00;;;;4933936;28;113125;-60
2022/06/30 06:59:27;;;;;;;2.45;1.38;;;22.70;99.90;22.80;100320.00;;;;4937170;28;87149;-60
2022/06/30 07:01:52;;;;;;;3.10;2.20;;;22.60;99.90;22.80;100312.00;;;;4935528;28;109381;-60
2022/06/30 07:04:30;;;;;;;3.00;1.98;;;22.60;99.90;22.70;100312.00;;;;4935743;28;118367;-59
2022/06/30 07:06:56;;;;;;;1.88;1.58;;;22.50;99.90;22.70;100311.00;;;;4935049;28;88188;-59
2022/06/30 07:09:22;;;;;;;2.30;1.75;;;22.50;99.90;22.70;100315.00;;;;4950720;28;88843;-61
2022/06/30 07:11:48;;;;;;;2.80;1.98;;;22.50;99.90;22.70;100307.00;;;;4956240;28;86941;-60
2022/06/30 07:14:14;;;;;;;1.83;1.60;;;22.60;99.90;22.80;100319.00;;;;4956180;28;87543;-60
2022/06/30 07:16:39;;;;;;;4.07;2.22;;;22.50;99.90;23.00;100312.00;;;;4938420;28;116801;-60
2022/06/30 07:19:08;;;;;;;1.67;1.52;;;22.60;99.90;23.10;100319.00;;;;4936097;28;108270;-60
2022/06/30 07:21:34;;;;;;;3.15;2.75;;;22.80;99.90;23.20;100330.00;;;;4935504;28;107872;-60
2022/06/30 07:23:59;;;;;;;2.15;1.92;;;22.90;99.90;23.30;100326.00;;;;4935507;28;117061;-59
2022/06/30 07:26:25;;;;;;;3.97;2.17;;;23.00;99.90;23.30;100333.00;;;;4934853;28;117945;-60
2022/06/30 07:28:51;;;;;;;4.18;2.67;;;23.10;99.90;23.40;100322.00;;;;4935582;28;91761;-61
2022/06/30 07:31:17;;;;;;;2.33;2.10;;;23.10;99.90;23.50;100338.00;;;;4935522;28;106777;-60
2022/06/30 07:33:44;;;;;;;2.50;1.90;;;23.20;99.90;23.70;100333.00;;;;4935390;28;92155;-60
2022/06/30 07:36:09;;;;;;;3.67;2.72;;;23.40;99.90;23.90;100324.00;;;;4935435;28;88285;-60
2022/06/30 07:38:35;;;;;;;3.13;2.38;;;23.60;99.90;24.00;100314.00;;;;4935353;28;110459;-59
2022/06/30 07:41:01;;;;;;;3.15;2.50;;;23.70;99.90;24.10;100320.00;;;;4935560;28;107423;-60
2022/06/30 07:43:26;;;;;;;2.65;2.45;;;23.80;99.90;24.30;100320.00;;;;4937058;28;87401;-60
2022/06/30 07:45:53;;;;;;;4.63;2.83;;;23.90;99.90;24.50;100321.00;;;;4934915;28;114023;-60
2022/06/30 07:48:19;;;;;;;6.38;4.05;;;24.10;99.90;24.80;100330.00;;;;4935734;28;87112;-60
2022/06/30 07:50:45;;;;;;;2.70;2.40;;;24.40;99.90;25.10;100325.00;;;;4917406;28;109355;-60
2022/06/30 07:53:11;;;;;;;2.38;2.17;;;24.70;99.90;25.40;100325.00;;;;4934660;28;108594;-60
2022/06/30 07:55:37;;;;;;;3.47;2.28;;;25.00;99.90;25.70;100333.00;;;;4935289;28;87306;-60
2022/06/30 07:58:03;;;;;;;2.40;2.20;;;25.20;99.90;25.80;100340.00;;;;4935872;28;86959;-61
2022/06/30 08:00:38;;;;;;;5.57;2.65;;;25.50;99.90;26.10;100346.00;;;;4938491;28;87474;-60
2022/06/30 08:03:03;;;;;;;2.50;1.83;;;25.70;99.90;26.30;100347.00;;;;4934076;28;115909;-60
2022/06/30 08:05:29;;;;;;;2.88;2.45;;;25.90;99.90;26.40;100343.00;;;;4934540;28;115082;-60
2022/06/30 08:08:05;;;;;;;2.50;1.95;;;26.10;99.90;26.70;100345.00;;;;4933969;28;110683;-60
2022/06/30 08:10:30;;;;;;;3.65;2.70;;;26.30;99.90;26.90;100348.00;;;;4934397;28;99608;-60
2022/06/30 08:12:56;;;;;;;3.35;2.67;;;26.40;99.60;27.00;100351.00;;;;4934523;28;116811;-60
2022/06/30 08:15:22;;;;;;;3.75;2.67;;;26.60;98.40;27.10;100345.00;;;;4934539;28;87808;-61
2022/06/30 08:17:48;;;;;;;3.60;2.13;;;26.70;98.00;27.30;100349.00;;;;4935037;28;95978;-59
2022/06/30 08:20:13;;;;;;;6.88;2.53;;;26.90;97.90;27.50;100349.00;;;;4934880;28;107528;-60
2022/06/30 08:22:42;;;;;;;4.40;2.38;;;27.10;97.50;27.70;100352.00;;;;4934784;28;115622;-60
2022/06/30 08:25:07;;;;;;;3.35;2.75;;;27.20;97.00;27.80;100351.00;;;;4934067;28;117760;-60
2022/06/30 08:27:33;;;;;;;4.05;2.90;;;27.40;95.60;27.90;100350.00;;;;4935430;28;87046;-60
2022/06/30 08:29:59;;;;;;;7.50;2.65;;;27.50;95.20;28.00;100346.00;;;;4934303;28;107757;-60
2022/06/30 08:32:24;;;;;;;4.70;2.63;;;27.60;94.70;28.20;100351.00;;;;4934275;28;116935;-60
2022/06/30 08:34:50;;;;;;;4.70;2.53;;;27.70;94.60;28.40;100350.00;;;;4934950;28;107950;-58
2022/06/30 08:37:16;;;;;;;5.25;2.75;;;28.00;94.50;28.60;100343.00;;;;4934270;28;108704;-60
2022/06/30 08:42:27;;;;;;;4.55;3.22;;;28.40;93.60;28.90;100344.00;;;;4933374;28;87749;-62
2022/06/30 08:47:41;;;;;;;3.67;2.28;;;28.60;92.60;29.00;100345.00;;;;4935394;28;87260;-61
2022/06/30 08:50:09;;;;;;;4.57;3.60;;;28.70;92.40;29.10;100343.00;;;;4935442;28;89785;-61
2022/06/30 08:52:51;;;;;;;5.07;2.90;;;28.70;91.90;29.20;100334.00;;;;4934682;28;88714;-61
2022/06/30 08:55:21;;;;;;;5.68;3.92;;;28.80;91.50;29.20;100335.00;;;;4935740;28;88284;-61
2022/06/30 08:57:48;;;;;;;4.38;3.72;;;28.90;90.80;29.30;100335.00;;;;4933181;28;96676;-60
2022/06/30 09:00:17;;;;;;;3.35;2.85;;;28.90;90.20;29.30;100321.00;;;;4933764;28;88036;-62
2022/06/30 09:02:44;;;;;;;5.90;4.15;;;29.00;87.80;29.30;100316.00;;;;4934635;28;96913;-61
2022/06/30 09:05:10;;;;;;;5.18;3.05;;;29.00;86.10;29.40;100324.00;;;;4933309;28;88434;-62
2022/06/30 09:07:36;;;;;;;5.60;2.85;;;29.00;87.00;29.60;100321.00;;;;4934643;28;87171;-60
2022/06/30 09:10:05;;;;;;;4.15;3.03;;;29.10;84.30;29.50;100325.00;;;;4935824;28;87445;-60
2022/06/30 09:12:31;;;;;;;4.93;3.55;;;29.10;83.20;29.50;100319.00;;;;4934751;28;88612;-60
2022/06/30 09:14:57;;;;;;;5.57;3.35;;;29.10;84.40;29.70;100318.00;;;;4934645;28;87317;-59
2022/06/30 09:17:26;;;;;;;2.78;2.55;;;29.30;84.50;29.90;100314.00;;;;4934463;28;87344;-60
2022/06/30 09:19:51;;;;;;;3.60;3.30;;;29.50;84.60;30.30;100317.00;;;;4934709;28;87264;-61
2022/06/30 09:22:18;;;;;;;4.57;3.38;;;29.80;84.20;30.60;100324.00;;;;4933903;28;106484;-62
2022/06/30 09:24:44;;;;;;;6.88;3.35;;;30.10;83.10;30.80;100321.00;;;;4935031;28;88053;-62
2022/06/30 09:27:21;;;;;;;5.05;3.35;;;30.30;79.60;30.70;100322.00;;;;4934466;28;87518;-62
2022/06/30 09:30:21;;;;;;;5.95;3.22;;;30.40;78.60;30.70;100316.00;;;;4933885;28;88353;-62
2022/06/30 09:32:58;;;;;;;3.80;2.72;;;30.30;78.50;30.90;100310.00;;;;4933731;28;88525;-61
2022/06/30 09:35:29;;;;;;;4.38;3.17;;;30.50;79.00;31.20;100300.00;;;;4934558;28;90449;-62
2022/06/30 09:38:12;;;;;;;5.55;3.78;;;30.70;78.50;31.50;100305.00;;;;4934263;28;97683;-61
2022/06/30 09:43:37;;;;;;;5.57;3.45;;;31.20;76.90;32.10;100307.00;;;;4933992;28;87237;-62
2022/06/30 09:46:04;;;;;;;7.32;3.70;;;31.60;75.50;32.20;100308.00;;;;4934163;28;88504;-63
2022/06/30 09:48:32;;;;;;;4.68;3.33;;;31.70;72.50;32.20;100297.00;;;;4934923;28;86090;-61
2022/06/30 09:51:03;;;;;;;5.13;3.15;;;31.80;69.60;32.10;100296.00;;;;4934284;28;87430;-61
2022/06/30 09:54:05;;;;;;;4.60;3.20;;;31.70;68.90;32.00;100291.00;;;;4934423;28;88633;-61
2022/06/30 09:56:31;;;;;;;5.85;3.47;;;31.60;68.50;31.80;100296.00;;;;4895632;28;88853;-63
2022/06/30 09:58:56;;;;;;;3.40;3.03;;;31.40;66.70;31.80;100301.00;;;;4896771;28;87658;-63
2022/06/30 10:01:22;;;;;;;4.13;2.75;;;31.40;67.00;31.70;100293.00;;;;4895579;28;109276;-61
2022/06/30 10:04:01;;;;;;;4.10;3.42;;;31.30;65.60;31.60;100293.00;;;;4895703;28;117577;-63
2022/06/30 10:06:28;;;;;;;2.75;2.28;;;31.20;65.90;31.80;100291.00;;;;4861542;28;88089;-63
2022/06/30 10:08:55;;;;;;;3.75;3.15;;;31.30;67.20;32.10;100290.00;;;;4896327;28;87831;-64
2022/06/30 10:11:22;;;;;;;4.78;3.35;;;31.50;64.80;32.30;100292.00;;;;4896166;28;87666;-64
2022/06/30 10:13:48;;;;;;;4.60;3.38;;;31.70;65.00;32.50;100290.00;;;;4894394;28;87361;-60
2022/06/30 10:16:17;;;;;;;4.00;3.17;;;31.80;63.30;32.60;100297.00;;;;4896006;28;88427;-60
2022/06/30 10:18:43;;;;;;;4.38;3.38;;;32.00;63.60;32.60;100291.00;;;;4896636;28;87816;-63
2022/06/30 10:21:09;;;;;;;4.50;3.25;;;32.00;61.70;32.30;100292.00;;;;4896203;28;88821;-60
2022/06/30 10:23:35;;;;;;;4.38;3.85;;;31.90;62.10;32.10;100299.00;;;;4895503;28;117386;-60
2022/06/30 10:26:02;;;;;;;3.67;3.28;;;31.60;61.80;31.90;100298.00;;;;4894776;28;118159;-60
2022/06/30 10:28:29;;;;;;;3.70;2.90;;;31.50;62.40;31.90;100305.00;;;;4896332;28;87940;-60
2022/06/30 10:31:42;;;;;;;4.05;3.38;;;31.40;62.50;31.90;100310.00;;;;4896022;28;87512;-63
2022/06/30 10:34:16;;;;;;;4.82;3.63;;;31.40;62.60;32.00;100309.00;;;;4891247;28;89261;-61
2022/06/30 10:36:49;;;;;;;4.13;2.90;;;31.40;63.30;32.10;100307.00;;;;4877926;28;90394;-61
2022/06/30 10:39:37;;;;;;;3.30;2.55;;;31.50;64.00;32.40;100302.00;;;;4895193;28;87105;-63
2022/06/30 10:42:03;;;;;;;3.67;2.78;;;31.70;64.10;32.60;100302.00;;;;4877147;28;99709;-63
2022/06/30 10:44:29;;;;;;;4.15;2.50;;;31.90;63.80;32.90;100301.00;;;;4895542;28;111554;-60
2022/06/30 10:46:55;;;;;;;8.63;2.88;;;32.20;63.70;33.30;100294.00;;;;4895106;28;88592;-60
2022/06/30 10:49:25;;;;;;;3.13;2.45;;;32.50;63.30;33.80;100293.00;;;;4896114;28;87858;-63
2022/06/30 10:52:18;;;;;;;3.53;3.15;;;33.00;62.80;34.20;100290.00;;;;4895367;28;91013;-64
2022/06/30 10:54:46;;;;;;;4.05;2.97;;;33.40;58.70;34.20;100286.00;;;;4895987;28;89002;-63
2022/06/30 10:57:12;;;;;;;4.10;2.72;;;33.50;57.90;34.20;100294.00;;;;4895508;28;88663;-63
2022/06/30 10:59:43;;;;;;;4.70;2.72;;;33.50;57.60;34.20;100292.00;;;;4896452;28;88369;-63
2022/06/30 11:02:12;;;;;;;2.97;2.47;;;33.50;57.30;34.10;100288.00;;;;4896204;28;88277;-63
2022/06/30 11:04:47;;;;;;;4.53;3.70;;;33.50;56.80;33.90;100282.00;;;;4896151;28;88156;-63
2022/06/30 11:07:18;;;;;;;4.97;3.40;;;33.40;57.30;33.70;100290.00;;;;4895823;28;87644;-63